Pourquoi Pas — FMCY — position and weather

sailwx.info

Track history (hours):
 
Tides and Currents Weather Stations Pressure Air Temp Water Temp Dewpoint Dewpoint Depression Visibility Wind Speed Wind Dir Waves Ship Positions

Oceanographic research ship Pourquoi Pas (France)

Last reported at 2017-May-22 21:40 UTC. Time now 2017-May-28 12:24 UTC.
Position N 37°51' E 015°57'.

Length 108 m; beam 20 m.

Type: Dredging. MMSI: 228207600.

Date/timePositionNaut miles runAvg speedWind from/ knotsBaromVisibWave heightAir tempDewpointWater temp
2017-May-22 21:40N 37°51' E 015°57'210.4
2017-May-22 21:30N 37°51' E 015°55'611.3
2017-May-22 21:00N 37°51' E 015°48'611.6
2017-May-22 20:30N 37°51' E 015°40'4 7.9
2017-May-22 20:00N 37°53' E 015°37'510.0
2017-May-22 19:30N 37°58' E 015°35'611.5
2017-May-22 19:00N 38°04' E 015°35'5 9.2
2017-May-22 18:30N 38°09' E 015°35'4 8.3
2017-May-22 18:00N 38°13' E 015°36'5 9.0
2017-May-22 17:30N 38°16' E 015°40'4 8.3
2017-May-22 17:00N 38°20' E 015°39'3 6.0
2017-May-22 16:30N 38°22' E 015°36'3 6.3
2017-May-22 16:00N 38°25' E 015°34'3 5.5
2017-May-22 15:30N 38°27' E 015°32'3 5.3
2017-May-22 15:00N 38°29' E 015°30'7 6.9
2017-May-22 14:00N 38°34' E 015°24'4 7.0
2017-May-22 13:30N 38°37' E 015°21'3 5.7
2017-May-22 13:00N 38°39' E 015°18'4 7.0
2017-May-22 12:30N 38°41' E 015°15'5 9.3
2017-May-22 12:00N 38°45' E 015°12'510.9
2017-May-22 11:30N 38°50' E 015°08'510.5
2017-May-22 11:00N 38°50' E 015°01'610.7
2017-May-22 10:29N 38°50' E 014°54'18 2.2
2017-May-22 02:21N 38°48' E 014°31'36 7.5
2017-May-21 21:33N 38°59' E 013°47'1 8.1
2017-May-21 21:29N 38°59' E 013°46'4 8.1
2017-May-21 20:59N 38°60' E 013°41'4 8.1
2017-May-21 20:30N 39°01' E 013°37'  
2017-May-19 09:02N 39°20' E 012°36'0 0.1
2017-May-19 08:56N 39°20' E 012°36'0 0.0
2017-May-18 21:10N 39°20' E 012°36'0 0.0
2017-May-18 21:00N 39°20' E 012°36'0 0.0
2017-May-18 20:19N 39°20' E 012°36'0 0.0
2017-May-18 19:53N 39°20' E 012°36'0 0.0
2017-May-18 19:26N 39°20' E 012°36'0 0.0
2017-May-18 18:58N 39°20' E 012°36'0 0.0
2017-May-18 18:23N 39°20' E 012°36'0 0.0
2017-May-18 17:57N 39°20' E 012°36'0 0.0
2017-May-18 17:27N 39°20' E 012°36'0 0.0
2017-May-18 16:52N 39°20' E 012°36'0 0.0
2017-May-18 16:25N 39°20' E 012°36'0 0.0
2017-May-18 15:06N 39°20' E 012°36'0 0.0
2017-May-18 14:59N 39°20' E 012°36'0 0.0
2017-May-18 13:51N 39°20' E 012°36'0 0.0
2017-May-18 13:30N 39°20' E 012°36'0 0.0
2017-May-18 13:00N 39°20' E 012°36'0 0.0
2017-May-18 11:32N 39°20' E 012°36'0 0.1
2017-May-18 11:28N 39°20' E 012°36'0 0.0
2017-May-18 10:59N 39°20' E 012°36'0 0.0
2017-May-18 10:23N 39°20' E 012°36'0 0.0
2017-May-18 09:54N 39°20' E 012°36'0 0.0
2017-May-18 09:29N 39°20' E 012°36'0 0.0
2017-May-18 08:59N 39°20' E 012°36'0 0.0
2017-May-18 08:28N 39°20' E 012°36'0 0.0
2017-May-18 07:57N 39°20' E 012°36'0 0.0
2017-May-18 07:27N 39°20' E 012°36'0 0.0
2017-May-18 06:24N 39°20' E 012°36'0 0.0
2017-May-18 05:57N 39°20' E 012°36'0 0.0
2017-May-18 05:27N 39°20' E 012°36'0 0.0
2017-May-18 05:00N 39°20' E 012°36'0 0.0
2017-May-18 04:30N 39°20' E 012°36'0 0.0
2017-May-18 04:00N 39°20' E 012°36'0 0.0
2017-May-18 03:28N 39°20' E 012°36'0 0.0
2017-May-18 02:58N 39°20' E 012°36'0 0.0
2017-May-18 02:27N 39°20' E 012°36'0 0.0
2017-May-18 01:58N 39°20' E 012°36'0 0.0
2017-May-18 01:28N 39°20' E 012°36'0 0.0
2017-May-18 00:57N 39°20' E 012°36'0 0.0
2017-May-18 00:29N 39°20' E 012°36'0 0.0
2017-May-17 23:57N 39°20' E 012°36'0 0.0
2017-May-17 22:49N 39°20' E 012°36'0 0.0
2017-May-17 22:28N 39°20' E 012°36'0 0.0
2017-May-17 21:59N 39°20' E 012°36'0 0.0
2017-May-17 21:26N 39°20' E 012°36'0 0.0
2017-May-17 21:00N 39°20' E 012°36'0 0.0
2017-May-17 20:27N 39°20' E 012°36'0 0.0
2017-May-17 19:58N 39°20' E 012°36'0 0.0
2017-May-17 19:29N 39°20' E 012°36'0 0.0
2017-May-17 18:59N 39°20' E 012°36'0 0.0
2017-May-17 18:24N 39°20' E 012°36'0 0.0
2017-May-17 18:00N 39°20' E 012°36'0 0.0
2017-May-17 17:30N 39°20' E 012°36'0 0.5
2017-May-17 16:57N 39°20' E 012°36'1 0.8
2017-May-17 16:13N 39°21' E 012°35'0 1.5
2017-May-17 15:58N 39°20' E 012°35'0 0.9
2017-May-17 15:29N 39°20' E 012°36'0 0.4
2017-May-17 14:44N 39°20' E 012°36'0 0.0
2017-May-17 13:56N 39°20' E 012°36'0 0.1
2017-May-17 13:28N 39°20' E 012°36'0 0.0
2017-May-17 12:47N 39°20' E 012°36'0 0.2
2017-May-17 12:30N 39°20' E 012°36'0 0.0
2017-May-17 11:49N 39°20' E 012°36'0 0.0
2017-May-17 11:29N 39°20' E 012°36'0 0.0
2017-May-17 10:55N 39°20' E 012°36'0 0.0
2017-May-17 10:20N 39°20' E 012°36'0 0.0
2017-May-17 09:55N 39°20' E 012°36'0 0.0
2017-May-17 09:29N 39°20' E 012°36'0 0.0
2017-May-17 08:55N 39°20' E 012°36'0 0.0
2017-May-17 08:21N 39°20' E 012°36'0 0.0
2017-May-17 08:00N 39°20' E 012°36'39 2.0
2017-May-16 12:31N 39°09' E 011°47'711.0
2017-May-16 11:53N 39°06' E 011°39'411.0
2017-May-16 11:30N 39°05' E 011°33'1011.0
2017-May-16 10:35N 39°02' E 011°21'211.1
2017-May-16 10:22N 39°01' E 011°18'410.8
2017-May-16 10:00N 39°00' E 011°13'101 5.9
2017-May-15 16:52N 38°23' E 009°13'411.4
2017-May-15 16:29N 38°21' E 009°08'611.3
2017-May-15 15:59N 38°19' E 009°01'511.1
2017-May-15 15:30N 38°17' E 008°55'  
Track history (hours):
 
Tides and Currents Weather Stations Pressure Air Temp Water Temp Dewpoint Dewpoint Depression Visibility Wind Speed Wind Dir Waves Ship Positions

Oceanographic research ship Pourquoi Pas (France)

Last reported at 2017-May-22 21:40 UTC. Time now 2017-May-28 12:24 UTC.
Position N 37°51' E 015°57'.

Length 108 m; beam 20 m.

Type: Dredging. MMSI: 228207600.

Date/timePositionNaut miles runAvg speedWind from/ knotsBaromVisibWave heightAir tempDewpointWater temp
2017-May-22 21:40N 37°51' E 015°57'210.4
2017-May-22 21:30N 37°51' E 015°55'611.3
2017-May-22 21:00N 37°51' E 015°48'611.6
2017-May-22 20:30N 37°51' E 015°40'4 7.9
2017-May-22 20:00N 37°53' E 015°37'510.0
2017-May-22 19:30N 37°58' E 015°35'611.5
2017-May-22 19:00N 38°04' E 015°35'5 9.2
2017-May-22 18:30N 38°09' E 015°35'4 8.3
2017-May-22 18:00N 38°13' E 015°36'5 9.0
2017-May-22 17:30N 38°16' E 015°40'4 8.3
2017-May-22 17:00N 38°20' E 015°39'3 6.0
2017-May-22 16:30N 38°22' E 015°36'3 6.3
2017-May-22 16:00N 38°25' E 015°34'3 5.5
2017-May-22 15:30N 38°27' E 015°32'3 5.3
2017-May-22 15:00N 38°29' E 015°30'7 6.9
2017-May-22 14:00N 38°34' E 015°24'4 7.0
2017-May-22 13:30N 38°37' E 015°21'3 5.7
2017-May-22 13:00N 38°39' E 015°18'4 7.0
2017-May-22 12:30N 38°41' E 015°15'5 9.3
2017-May-22 12:00N 38°45' E 015°12'510.9
2017-May-22 11:30N 38°50' E 015°08'510.5
2017-May-22 11:00N 38°50' E 015°01'610.7
2017-May-22 10:29N 38°50' E 014°54'18 2.2
2017-May-22 02:21N 38°48' E 014°31'36 7.5
2017-May-21 21:33N 38°59' E 013°47'1 8.1
2017-May-21 21:29N 38°59' E 013°46'4 8.1
2017-May-21 20:59N 38°60' E 013°41'4 8.1
2017-May-21 20:30N 39°01' E 013°37'  
2017-May-19 09:02N 39°20' E 012°36'0 0.1
2017-May-19 08:56N 39°20' E 012°36'0 0.0
2017-May-18 21:10N 39°20' E 012°36'0 0.0
2017-May-18 21:00N 39°20' E 012°36'0 0.0
2017-May-18 20:19N 39°20' E 012°36'0 0.0
2017-May-18 19:53N 39°20' E 012°36'0 0.0
2017-May-18 19:26N 39°20' E 012°36'0 0.0
2017-May-18 18:58N 39°20' E 012°36'0 0.0
2017-May-18 18:23N 39°20' E 012°36'0 0.0
2017-May-18 17:57N 39°20' E 012°36'0 0.0
2017-May-18 17:27N 39°20' E 012°36'0 0.0
2017-May-18 16:52N 39°20' E 012°36'0 0.0
2017-May-18 16:25N 39°20' E 012°36'0 0.0
2017-May-18 15:06N 39°20' E 012°36'0 0.0
2017-May-18 14:59N 39°20' E 012°36'0 0.0
2017-May-18 13:51N 39°20' E 012°36'0 0.0
2017-May-18 13:30N 39°20' E 012°36'0 0.0
2017-May-18 13:00N 39°20' E 012°36'0 0.0
2017-May-18 11:32N 39°20' E 012°36'0 0.1
2017-May-18 11:28N 39°20' E 012°36'0 0.0
2017-May-18 10:59N 39°20' E 012°36'0 0.0
2017-May-18 10:23N 39°20' E 012°36'0 0.0
2017-May-18 09:54N 39°20' E 012°36'0 0.0
2017-May-18 09:29N 39°20' E 012°36'0 0.0
2017-May-18 08:59N 39°20' E 012°36'0 0.0
2017-May-18 08:28N 39°20' E 012°36'0 0.0
2017-May-18 07:57N 39°20' E 012°36'0 0.0
2017-May-18 07:27N 39°20' E 012°36'0 0.0
2017-May-18 06:24N 39°20' E 012°36'0 0.0
2017-May-18 05:57N 39°20' E 012°36'0 0.0
2017-May-18 05:27N 39°20' E 012°36'0 0.0
2017-May-18 05:00N 39°20' E 012°36'0 0.0
2017-May-18 04:30N 39°20' E 012°36'0 0.0
2017-May-18 04:00N 39°20' E 012°36'0 0.0
2017-May-18 03:28N 39°20' E 012°36'0 0.0
2017-May-18 02:58N 39°20' E 012°36'0 0.0
2017-May-18 02:27N 39°20' E 012°36'0 0.0
2017-May-18 01:58N 39°20' E 012°36'0 0.0
2017-May-18 01:28N 39°20' E 012°36'0 0.0
2017-May-18 00:57N 39°20' E 012°36'0 0.0
2017-May-18 00:29N 39°20' E 012°36'0 0.0
2017-May-17 23:57N 39°20' E 012°36'0 0.0
2017-May-17 22:49N 39°20' E 012°36'0 0.0
2017-May-17 22:28N 39°20' E 012°36'0 0.0
2017-May-17 21:59N 39°20' E 012°36'0 0.0
2017-May-17 21:26N 39°20' E 012°36'0 0.0
2017-May-17 21:00N 39°20' E 012°36'0 0.0
2017-May-17 20:27N 39°20' E 012°36'0 0.0
2017-May-17 19:58N 39°20' E 012°36'0 0.0
2017-May-17 19:29N 39°20' E 012°36'0 0.0
2017-May-17 18:59N 39°20' E 012°36'0 0.0
2017-May-17 18:24N 39°20' E 012°36'0 0.0
2017-May-17 18:00N 39°20' E 012°36'0 0.0
2017-May-17 17:30N 39°20' E 012°36'0 0.5
2017-May-17 16:57N 39°20' E 012°36'1 0.8
2017-May-17 16:13N 39°21' E 012°35'0 1.5
2017-May-17 15:58N 39°20' E 012°35'0 0.9
2017-May-17 15:29N 39°20' E 012°36'0 0.4
2017-May-17 14:44N 39°20' E 012°36'0 0.0
2017-May-17 13:56N 39°20' E 012°36'0 0.1
2017-May-17 13:28N 39°20' E 012°36'0 0.0
2017-May-17 12:47N 39°20' E 012°36'0 0.2
2017-May-17 12:30N 39°20' E 012°36'0 0.0
2017-May-17 11:49N 39°20' E 012°36'0 0.0
2017-May-17 11:29N 39°20' E 012°36'0 0.0
2017-May-17 10:55N 39°20' E 012°36'0 0.0
2017-May-17 10:20N 39°20' E 012°36'0 0.0
2017-May-17 09:55N 39°20' E 012°36'0 0.0
2017-May-17 09:29N 39°20' E 012°36'0 0.0
2017-May-17 08:55N 39°20' E 012°36'0 0.0
2017-May-17 08:21N 39°20' E 012°36'0 0.0
2017-May-17 08:00N 39°20' E 012°36'39 2.0
2017-May-16 12:31N 39°09' E 011°47'711.0
2017-May-16 11:53N 39°06' E 011°39'411.0
2017-May-16 11:30N 39°05' E 011°33'1011.0
2017-May-16 10:35N 39°02' E 011°21'211.1
2017-May-16 10:22N 39°01' E 011°18'410.8
2017-May-16 10:00N 39°00' E 011°13'101 5.9
2017-May-15 16:52N 38°23' E 009°13'411.4
2017-May-15 16:29N 38°21' E 009°08'611.3
2017-May-15 15:59N 38°19' E 009°01'511.1
2017-May-15 15:30N 38°17' E 008°55'  

Dump ship's entire track history